createdAt,value
2023-04-24T00:00:11.006Z,7.95
2023-04-24T00:02:40.985Z,8.00
2023-04-24T00:05:10.126Z,7.88
2023-04-24T00:07:37.848Z,7.35
2023-04-24T00:10:06.066Z,7.70
2023-04-24T00:12:33.655Z,7.22
2023-04-24T00:15:01.483Z,7.70
2023-04-24T00:17:29.289Z,7.80
2023-04-24T00:19:59.461Z,7.90
2023-04-24T00:22:28.244Z,7.95
2023-04-24T00:24:56.335Z,7.75
2023-04-24T00:27:24.007Z,7.57
2023-04-24T00:29:51.598Z,8.32
2023-04-24T00:32:19.434Z,7.85
2023-04-24T00:34:47.143Z,7.22
2023-04-24T00:37:16.056Z,7.35
2023-04-24T00:39:46.023Z,7.25
2023-04-24T00:42:14.005Z,7.22
2023-04-24T00:44:42.618Z,7.13
2023-04-24T00:47:10.392Z,6.22
2023-04-24T00:49:37.977Z,6.90
2023-04-24T00:52:08.514Z,6.72
2023-04-24T00:54:37.774Z,6.80
2023-04-24T00:57:06.152Z,6.47
2023-04-24T00:59:34.103Z,7.20
2023-04-24T01:02:01.870Z,6.78
2023-04-24T01:04:29.718Z,7.45
2023-04-24T01:06:58.222Z,6.68
2023-04-24T01:09:26.886Z,6.90
2023-04-24T01:11:56.026Z,6.43
2023-04-24T01:14:24.504Z,6.78
2023-04-24T01:16:52.089Z,6.85
2023-04-24T01:19:20.894Z,6.68
2023-04-24T01:21:49.577Z,7.00
2023-04-24T01:24:21.324Z,7.05
2023-04-24T01:26:49.042Z,6.90
2023-04-24T01:29:16.694Z,6.53
2023-04-24T01:31:45.099Z,6.40
2023-04-24T01:34:12.870Z,6.00
2023-04-24T01:36:41.184Z,6.28
2023-04-24T01:39:08.908Z,5.18
2023-04-24T01:41:37.879Z,5.55
2023-04-24T01:44:05.645Z,5.70
2023-04-24T01:46:35.122Z,5.00
2023-04-24T01:49:03.186Z,4.82
2023-04-24T01:51:31.065Z,4.38
2023-04-24T01:53:58.704Z,4.45
2023-04-24T01:56:27.413Z,3.95
2023-04-24T01:58:56.858Z,3.70
2023-04-24T02:01:25.987Z,3.85
2023-04-24T02:03:53.738Z,3.67
2023-04-24T02:06:21.319Z,4.30
2023-04-24T02:08:48.879Z,3.22
2023-04-24T02:11:16.466Z,3.05
2023-04-24T02:13:44.006Z,2.83
2023-04-24T02:16:13.043Z,2.70
2023-04-24T02:18:40.628Z,2.50
2023-04-24T02:21:08.337Z,2.80
2023-04-24T02:23:36.803Z,2.20
2023-04-24T02:26:04.556Z,2.38
2023-04-24T02:28:32.103Z,2.20
2023-04-24T02:30:59.831Z,2.47
2023-04-24T02:33:28.723Z,3.05
2023-04-24T02:35:56.438Z,2.63
2023-04-24T02:38:24.143Z,3.15
2023-04-24T02:40:51.721Z,3.33
2023-04-24T02:43:19.323Z,2.92
2023-04-24T02:45:46.888Z,3.00
2023-04-24T02:48:14.552Z,3.40
2023-04-24T02:50:43.732Z,3.15
2023-04-24T02:53:11.329Z,2.95
2023-04-24T02:55:39.014Z,3.58
2023-04-24T02:58:06.875Z,3.00
2023-04-24T03:00:34.942Z,3.13
2023-04-24T03:03:02.658Z,2.90
2023-04-24T03:05:31.725Z,2.75
2023-04-24T03:08:00.581Z,2.80
2023-04-24T03:10:28.388Z,2.72
2023-04-24T03:12:56.590Z,2.72
2023-04-24T03:15:24.148Z,2.58
2023-04-24T03:17:51.815Z,2.72
2023-04-24T03:20:19.696Z,5.82
2023-04-24T03:22:47.573Z,3.15
2023-04-24T03:25:16.472Z,2.67
2023-04-24T03:27:44.024Z,2.85
2023-04-24T03:30:31.864Z,3.10
2023-04-24T03:33:02.228Z,2.47
2023-04-24T03:35:33.519Z,2.35
2023-04-24T03:38:05.194Z,2.45
2023-04-24T03:40:59.329Z,2.25
2023-04-24T03:43:39.087Z,2.40
2023-04-24T03:46:07.938Z,2.45
2023-04-24T03:48:39.563Z,2.55
2023-04-24T03:51:08.631Z,3.03
2023-04-24T03:53:37.939Z,3.33
2023-04-24T03:56:07.029Z,2.22
2023-04-24T03:58:35.337Z,2.00
2023-04-24T04:01:03.578Z,2.40
2023-04-24T04:03:56.249Z,2.13
2023-04-24T04:06:27.418Z,2.20
2023-04-24T04:08:56.454Z,1.60
2023-04-24T04:11:26.793Z,2.17
2023-04-24T04:13:54.355Z,2.00
2023-04-24T04:16:23.224Z,1.60
2023-04-24T04:18:54.813Z,2.30
2023-04-24T04:21:22.444Z,2.00
2023-04-24T04:23:53.627Z,1.75
2023-04-24T04:26:28.996Z,1.90
2023-04-24T04:29:04.158Z,1.73
2023-04-24T04:31:33.042Z,1.70
2023-04-24T04:34:04.690Z,1.92
2023-04-24T04:36:37.573Z,1.80
2023-04-24T04:39:19.520Z,1.90
2023-04-24T04:42:02.019Z,1.80
2023-04-24T04:44:39.435Z,1.80
2023-04-24T04:47:09.790Z,1.67
2023-04-24T04:49:39.438Z,1.48
2023-04-24T04:52:12.433Z,1.60
2023-04-24T04:54:40.101Z,1.50
2023-04-24T04:57:09.068Z,1.70
2023-04-24T04:59:38.098Z,1.50
2023-04-24T05:02:10.464Z,1.70
2023-04-24T05:04:38.512Z,2.13
2023-04-24T05:07:06.609Z,1.70
2023-04-24T05:09:37.067Z,1.63
2023-04-24T05:12:06.850Z,1.50
2023-04-24T05:14:41.401Z,1.40
2023-04-24T05:17:09.389Z,1.60
2023-04-24T05:19:38.848Z,1.63
2023-04-24T05:22:08.053Z,1.55
2023-04-24T05:24:40.836Z,1.52
2023-04-24T05:27:16.098Z,1.77
2023-04-24T05:29:45.355Z,1.50
2023-04-24T05:32:14.697Z,1.73
2023-04-24T05:34:42.944Z,1.65
2023-04-24T05:37:10.994Z,1.60
2023-04-24T05:39:38.780Z,1.38
2023-04-24T05:42:06.560Z,2.25
2023-04-24T05:44:34.154Z,1.48
2023-04-24T05:47:03.116Z,1.30
2023-04-24T05:49:30.693Z,1.40
2023-04-24T05:51:59.179Z,1.50
2023-04-24T05:54:26.836Z,1.48
2023-04-24T05:56:55.446Z,1.27
2023-04-24T05:59:32.577Z,1.50
2023-04-24T06:02:00.279Z,1.67
2023-04-24T06:04:29.504Z,1.60
2023-04-24T06:06:59.877Z,1.67
2023-04-24T06:09:28.033Z,1.70
2023-04-24T06:11:55.747Z,1.27
2023-04-24T06:14:27.115Z,1.50
2023-04-24T06:17:18.023Z,1.50
2023-04-24T06:19:48.419Z,1.70
2023-04-24T06:22:16.115Z,1.92
2023-04-24T06:24:43.672Z,1.70
2023-04-24T06:27:11.473Z,1.48
2023-04-24T06:29:42.314Z,1.77
2023-04-24T06:32:10.107Z,1.70
2023-04-24T06:34:37.926Z,1.67
2023-04-24T06:37:06.885Z,1.90
2023-04-24T06:39:34.414Z,1.40
2023-04-24T06:42:01.978Z,1.90
2023-04-24T06:44:29.622Z,1.60
2023-04-24T06:46:57.499Z,1.67
2023-04-24T06:49:25.345Z,1.80
2023-04-24T06:51:52.939Z,2.00
2023-04-24T06:54:22.078Z,2.03
2023-04-24T06:56:50.697Z,2.20
2023-04-24T06:59:18.348Z,1.83
2023-04-24T07:01:46.352Z,2.00
2023-04-24T07:04:14.222Z,2.35
2023-04-24T07:06:42.337Z,2.17
2023-04-24T07:09:10.591Z,2.60
2023-04-24T07:11:41.564Z,2.30
2023-04-24T07:14:09.727Z,2.28
2023-04-24T07:16:37.606Z,3.80
2023-04-24T07:19:05.254Z,3.70
2023-04-24T07:21:33.187Z,6.50
2023-04-24T07:24:01.019Z,3.40
2023-04-24T07:26:29.059Z,3.60
2023-04-24T07:28:57.978Z,4.90
2023-04-24T07:31:25.583Z,3.55
2023-04-24T07:33:53.184Z,4.68
2023-04-24T07:36:20.911Z,5.60
2023-04-24T07:38:48.658Z,4.38
2023-04-24T07:41:16.595Z,6.80
2023-04-24T07:43:44.274Z,4.78
2023-04-24T07:46:13.547Z,5.10
2023-04-24T07:48:41.188Z,4.10
2023-04-24T07:51:11.063Z,4.60
2023-04-24T07:53:38.731Z,4.47
2023-04-24T07:56:06.812Z,4.78
2023-04-24T07:58:34.395Z,3.85
2023-04-24T08:01:02.054Z,4.47
2023-04-24T08:03:31.211Z,3.95
2023-04-24T08:05:58.982Z,3.97
2023-04-24T08:08:27.114Z,5.80
2023-04-24T08:10:55.869Z,4.15
2023-04-24T08:13:24.098Z,5.90
2023-04-24T08:15:51.804Z,4.60
2023-04-24T08:18:19.406Z,4.47
2023-04-24T08:20:48.305Z,5.38
2023-04-24T08:23:16.101Z,5.45
2023-04-24T08:25:43.729Z,5.40
2023-04-24T08:28:11.691Z,4.55
2023-04-24T08:30:39.898Z,5.25
2023-04-24T08:33:08.192Z,4.43
2023-04-24T08:35:35.825Z,4.40
2023-04-24T08:38:04.804Z,4.38
2023-04-24T08:40:36.478Z,4.40
2023-04-24T08:43:05.428Z,5.30
2023-04-24T08:45:34.839Z,5.68
2023-04-24T08:48:02.767Z,8.65
2023-04-24T08:50:31.223Z,5.40
2023-04-24T08:52:59.725Z,6.30
2023-04-24T08:55:28.832Z,5.07
2023-04-24T08:57:56.894Z,5.07
2023-04-24T09:00:24.501Z,5.10
2023-04-24T09:02:54.891Z,6.55
2023-04-24T09:05:26.344Z,6.68
2023-04-24T09:07:56.992Z,5.78
2023-04-24T09:10:26.008Z,6.63
2023-04-24T09:12:55.983Z,5.90
2023-04-24T09:15:23.694Z,5.55
2023-04-24T09:17:51.571Z,5.07
2023-04-24T09:20:19.412Z,4.45
2023-04-24T09:22:47.141Z,5.63
2023-04-24T09:25:14.939Z,5.03
2023-04-24T09:27:47.277Z,5.13
2023-04-24T09:30:23.634Z,6.07
2023-04-24T09:32:51.308Z,4.70
2023-04-24T09:35:18.877Z,4.50
2023-04-24T09:37:49.694Z,6.07
2023-04-24T09:40:18.981Z,4.90
2023-04-24T09:42:47.887Z,6.30
2023-04-24T09:45:16.800Z,5.25
2023-04-24T09:47:44.973Z,5.07
2023-04-24T09:50:17.278Z,6.80
2023-04-24T09:52:46.827Z,6.15
2023-04-24T09:55:17.802Z,5.90
2023-04-24T09:57:57.000Z,5.82
2023-04-24T10:00:27.960Z,6.78
2023-04-24T10:03:00.287Z,5.30
2023-04-24T10:05:33.405Z,5.55
2023-04-24T10:08:05.325Z,6.30
2023-04-24T10:10:33.722Z,6.13
2023-04-24T10:13:02.149Z,6.60
2023-04-24T10:15:31.844Z,7.13
2023-04-24T10:18:00.791Z,7.90
2023-04-24T10:20:31.539Z,7.35
2023-04-24T10:23:00.108Z,7.60
2023-04-24T10:25:29.123Z,8.02
2023-04-24T10:28:00.316Z,7.28
2023-04-24T10:30:29.948Z,8.70
2023-04-24T10:32:58.951Z,8.02
2023-04-24T10:35:27.781Z,9.02
2023-04-24T10:37:58.851Z,8.57
2023-04-24T10:40:29.378Z,10.15
2023-04-24T10:42:58.963Z,10.27
2023-04-24T10:45:27.441Z,9.70
2023-04-24T10:48:04.373Z,9.60
2023-04-24T10:50:44.978Z,8.70
2023-04-24T10:53:16.713Z,8.55
2023-04-24T10:55:46.688Z,8.25
2023-04-24T10:58:15.720Z,7.43
2023-04-24T11:00:43.442Z,8.10
2023-04-24T11:03:26.960Z,8.45
2023-04-24T11:06:00.412Z,7.47
2023-04-24T11:08:30.366Z,7.60
2023-04-24T11:11:03.555Z,6.68
2023-04-24T11:14:01.018Z,7.43
2023-04-24T11:16:30.859Z,8.13
2023-04-24T11:19:05.008Z,7.43
2023-04-24T11:21:43.767Z,7.43
2023-04-24T11:24:31.957Z,7.32
2023-04-24T11:27:02.587Z,6.80
2023-04-24T11:29:41.752Z,6.93
2023-04-24T11:32:26.698Z,7.15
2023-04-24T11:34:56.756Z,6.72
2023-04-24T11:37:26.077Z,6.80
2023-04-24T11:39:57.882Z,7.35
2023-04-24T11:42:26.499Z,7.13
2023-04-24T11:44:56.330Z,7.30
2023-04-24T11:47:30.714Z,7.20
2023-04-24T11:50:00.807Z,5.70
2023-04-24T11:52:29.498Z,6.53
2023-04-24T11:54:57.453Z,6.72
2023-04-24T11:57:28.813Z,6.25
2023-04-24T11:59:56.767Z,6.10
2023-04-24T12:02:25.730Z,6.28
2023-04-24T12:04:54.814Z,6.70
2023-04-24T12:07:25.362Z,6.93
2023-04-24T12:09:58.789Z,6.75
2023-04-24T12:12:28.281Z,6.05
2023-04-24T12:14:57.700Z,5.82
2023-04-24T12:17:29.016Z,5.72
2023-04-24T12:20:01.017Z,5.55
2023-04-24T12:22:30.021Z,5.88
2023-04-24T12:24:59.173Z,5.55
2023-04-24T12:27:27.112Z,5.07
2023-04-24T12:29:55.480Z,5.13
2023-04-24T12:32:23.138Z,5.97
2023-04-24T12:34:52.006Z,5.90
2023-04-24T12:37:19.645Z,5.60
2023-04-24T12:40:02.344Z,5.47
2023-04-24T12:42:31.280Z,5.78
2023-04-24T12:45:00.932Z,6.20
2023-04-24T12:47:29.632Z,6.03
2023-04-24T12:49:57.269Z,5.43
2023-04-24T12:52:26.696Z,6.18
2023-04-24T12:54:56.267Z,7.28
2023-04-24T12:57:25.864Z,6.15
2023-04-24T12:59:55.486Z,6.30
2023-04-24T13:02:23.479Z,6.28
2023-04-24T13:04:52.096Z,5.75
2023-04-24T13:07:19.946Z,5.28
2023-04-24T13:09:49.485Z,5.57
2023-04-24T13:12:17.420Z,5.85
2023-04-24T13:14:47.253Z,5.95
2023-04-24T13:17:15.401Z,5.20
2023-04-24T13:19:45.166Z,5.70
2023-04-24T13:22:13.844Z,5.40
2023-04-24T13:24:42.421Z,4.55
2023-04-24T13:27:10.512Z,4.90
2023-04-24T13:29:38.529Z,4.85
2023-04-24T13:32:07.985Z,4.90
2023-04-24T13:34:36.585Z,4.22
2023-04-24T13:37:05.255Z,4.45
2023-04-24T13:39:33.441Z,3.92
2023-04-24T13:42:03.229Z,4.47
2023-04-24T13:44:32.155Z,3.95
2023-04-24T13:46:59.994Z,4.75
2023-04-24T13:49:32.008Z,4.55
2023-04-24T13:51:59.905Z,4.07
2023-04-24T13:54:27.692Z,4.00
2023-04-24T13:56:56.074Z,3.20
2023-04-24T13:59:23.732Z,3.88
2023-04-24T14:01:51.488Z,4.00
2023-04-24T14:04:19.354Z,4.50
2023-04-24T14:06:48.657Z,3.95
2023-04-24T14:09:16.349Z,3.97
2023-04-24T14:11:44.078Z,4.20
2023-04-24T14:14:12.453Z,3.78
2023-04-24T14:16:40.232Z,4.30
2023-04-24T14:19:08.200Z,4.43
2023-04-24T14:21:35.946Z,3.75
2023-04-24T14:24:05.099Z,4.15
2023-04-24T14:26:37.791Z,4.93
2023-04-24T14:29:14.101Z,5.90
2023-04-24T14:31:42.296Z,5.47
2023-04-24T14:34:10.356Z,4.78
2023-04-24T14:36:38.110Z,4.90
2023-04-24T14:39:08.119Z,6.00
2023-04-24T14:41:36.991Z,6.40
2023-04-24T14:44:04.876Z,7.75
2023-04-24T14:46:32.744Z,8.98
2023-04-24T14:49:00.838Z,7.55
2023-04-24T14:51:28.791Z,6.85
2023-04-24T14:53:56.432Z,7.93
2023-04-24T14:56:25.394Z,8.00
2023-04-24T14:58:53.270Z,7.93
2023-04-24T15:01:20.922Z,8.52
2023-04-24T15:03:48.908Z,7.78
2023-04-24T15:06:16.828Z,8.57
2023-04-24T15:08:44.594Z,10.52
2023-04-24T15:11:13.080Z,11.10
2023-04-24T15:13:42.169Z,10.52
2023-04-24T15:16:09.773Z,7.93
2023-04-24T15:18:37.546Z,6.75
2023-04-24T15:21:05.149Z,5.85
2023-04-24T15:23:32.964Z,4.68
2023-04-24T15:26:00.856Z,4.28
2023-04-24T15:28:28.502Z,3.72
2023-04-24T15:30:57.387Z,3.63
2023-04-24T15:33:26.802Z,3.28
2023-04-24T15:35:54.363Z,3.45
2023-04-24T15:38:22.224Z,3.90
2023-04-24T15:40:50.371Z,3.22
2023-04-24T15:43:18.026Z,4.13
2023-04-24T15:45:45.744Z,5.30
2023-04-24T15:48:14.817Z,5.28
2023-04-24T15:50:42.483Z,6.25
2023-04-24T15:53:10.141Z,7.30
2023-04-24T15:55:38.197Z,7.10
2023-04-24T15:58:05.913Z,6.97
2023-04-24T16:00:35.484Z,7.07
2023-04-24T16:03:03.390Z,7.93
2023-04-24T16:05:32.530Z,8.45
2023-04-24T16:08:00.297Z,9.13
2023-04-24T16:10:27.938Z,8.05
2023-04-24T16:12:55.847Z,7.22
2023-04-24T16:15:23.775Z,7.28
2023-04-24T16:17:51.597Z,6.60
2023-04-24T16:20:19.268Z,6.28
2023-04-24T16:22:48.163Z,5.60
2023-04-24T16:25:15.997Z,6.43
2023-04-24T16:27:44.025Z,5.80
2023-04-24T16:30:12.481Z,6.82
2023-04-24T16:32:40.098Z,9.20
2023-04-24T16:35:08.228Z,6.50
2023-04-24T16:37:35.927Z,6.78
2023-04-24T16:40:10.471Z,7.30
2023-04-24T16:42:38.879Z,6.43
2023-04-24T16:45:07.866Z,6.28
2023-04-24T16:47:35.815Z,6.47
2023-04-24T16:50:03.574Z,6.22
2023-04-24T16:52:31.222Z,6.25
2023-04-24T16:54:59.634Z,6.15
2023-04-24T16:57:28.673Z,6.50
2023-04-24T16:59:58.943Z,5.97
2023-04-24T17:02:26.624Z,6.60
2023-04-24T17:04:54.430Z,6.63
2023-04-24T17:07:22.150Z,6.45
2023-04-24T17:09:49.847Z,7.15
2023-04-24T17:12:17.546Z,7.28
2023-04-24T17:14:46.587Z,7.95
2023-04-24T17:17:14.890Z,8.30
2023-04-24T17:19:42.506Z,8.10
2023-04-24T17:22:10.097Z,9.02
2023-04-24T17:24:37.705Z,8.25
2023-04-24T17:27:14.497Z,8.13
2023-04-24T17:29:43.539Z,9.32
2023-04-24T17:32:12.776Z,9.45
2023-04-24T17:34:40.662Z,10.13
2023-04-24T17:37:08.291Z,11.55
2023-04-24T17:39:36.027Z,10.50
2023-04-24T17:42:03.674Z,9.75
2023-04-24T17:44:31.338Z,10.40
2023-04-24T17:46:59.051Z,8.95
2023-04-24T17:49:27.932Z,9.20
2023-04-24T17:51:55.468Z,9.68
2023-04-24T17:54:23.490Z,10.55
2023-04-24T17:56:52.830Z,9.43
2023-04-24T17:59:20.550Z,9.43
2023-04-24T18:01:48.159Z,9.85
2023-04-24T18:04:15.919Z,10.23
2023-04-24T18:06:45.317Z,11.02
2023-04-24T18:09:15.609Z,9.98
2023-04-24T18:11:43.569Z,9.27
2023-04-24T18:14:11.238Z,8.88
2023-04-24T18:16:38.977Z,9.13
2023-04-24T18:19:06.551Z,9.73
2023-04-24T18:21:34.336Z,9.68
2023-04-24T18:24:03.280Z,9.82
2023-04-24T18:26:31.133Z,9.48
2023-04-24T18:28:58.738Z,8.88
2023-04-24T18:31:26.498Z,9.18
2023-04-24T18:33:55.336Z,6.55
2023-04-24T18:36:22.854Z,6.75
2023-04-24T18:38:50.737Z,5.65
2023-04-24T18:41:19.794Z,5.75
2023-04-24T18:43:47.715Z,5.40
2023-04-24T18:46:15.372Z,5.05
2023-04-24T18:48:42.994Z,4.70
2023-04-24T18:51:10.830Z,3.63
2023-04-24T18:53:38.415Z,2.88
2023-04-24T18:56:05.993Z,3.15
2023-04-24T18:58:34.916Z,3.67
2023-04-24T19:01:02.802Z,2.90
2023-04-24T19:03:32.423Z,2.72
2023-04-24T19:06:00.149Z,3.50
2023-04-24T19:08:27.687Z,2.90
2023-04-24T19:10:55.412Z,3.00
2023-04-24T19:13:23.037Z,2.60
2023-04-24T19:15:52.001Z,3.05
2023-04-24T19:18:19.504Z,2.70
2023-04-24T19:20:47.091Z,3.17
2023-04-24T19:23:14.783Z,3.55
2023-04-24T19:25:42.284Z,3.10
2023-04-24T19:28:09.883Z,3.13
2023-04-24T19:30:38.321Z,2.70
2023-04-24T19:33:07.680Z,3.30
2023-04-24T19:35:35.917Z,3.05
2023-04-24T19:38:03.536Z,3.25
2023-04-24T19:40:31.106Z,4.10
2023-04-24T19:42:58.675Z,3.25
2023-04-24T19:45:26.241Z,3.00
2023-04-24T19:47:54.627Z,3.30
2023-04-24T19:50:23.696Z,3.25
2023-04-24T19:52:51.196Z,3.53
2023-04-24T19:55:19.141Z,3.35
2023-04-24T19:57:46.774Z,3.60
2023-04-24T20:00:15.336Z,3.88
2023-04-24T20:02:43.141Z,3.00
2023-04-24T20:05:11.771Z,3.83
2023-04-24T20:07:40.898Z,3.58
2023-04-24T20:10:09.516Z,4.20
2023-04-24T20:12:37.104Z,4.32
2023-04-24T20:15:05.663Z,3.92
2023-04-24T20:17:33.250Z,3.90
2023-04-24T20:20:00.869Z,3.55
2023-04-24T20:22:28.606Z,4.38
2023-04-24T20:24:57.503Z,3.92
2023-04-24T20:27:25.098Z,3.90
2023-04-24T20:29:54.510Z,3.88
2023-04-24T20:32:22.257Z,3.88
2023-04-24T20:34:49.935Z,3.67
2023-04-24T20:37:17.497Z,4.25
2023-04-24T20:39:46.240Z,4.47
2023-04-24T20:42:16.615Z,3.47
2023-04-24T20:44:45.523Z,3.35
2023-04-24T20:47:13.202Z,3.55
2023-04-24T20:49:40.828Z,2.92
2023-04-24T20:52:08.447Z,3.17
2023-04-24T20:54:36.071Z,3.17
2023-04-24T20:57:04.401Z,3.47
2023-04-24T20:59:33.334Z,3.70
2023-04-24T21:02:00.933Z,3.22
2023-04-24T21:04:28.493Z,3.50
2023-04-24T21:06:56.166Z,3.50
2023-04-24T21:09:23.766Z,4.28
2023-04-24T21:11:51.508Z,4.07
2023-04-24T21:14:18.998Z,3.42
2023-04-24T21:16:48.075Z,3.58
2023-04-24T21:19:16.201Z,3.33
2023-04-24T21:21:43.747Z,3.20
2023-04-24T21:24:11.291Z,3.65
2023-04-24T21:26:39.037Z,3.35
2023-04-24T21:29:06.774Z,2.88
2023-04-24T21:31:34.569Z,3.35
2023-04-24T21:34:03.487Z,3.45
2023-04-24T21:36:32.724Z,3.83
2023-04-24T21:39:00.603Z,3.10
2023-04-24T21:41:28.180Z,3.90
2023-04-24T21:43:56.227Z,3.03
2023-04-24T21:46:24.141Z,4.03
2023-04-24T21:48:51.729Z,4.15
2023-04-24T21:51:20.717Z,3.63
2023-04-24T21:53:48.688Z,3.92
2023-04-24T21:56:16.598Z,4.05
2023-04-24T21:58:44.350Z,3.30
2023-04-24T22:01:12.211Z,3.42
2023-04-24T22:03:40.078Z,4.28
2023-04-24T22:06:08.040Z,3.55
2023-04-24T22:08:36.951Z,3.70
2023-04-24T22:11:08.954Z,3.63
2023-04-24T22:13:41.706Z,4.38
2023-04-24T22:16:09.783Z,3.85
2023-04-24T22:18:46.509Z,4.03
2023-04-24T22:21:14.934Z,4.57
2023-04-24T22:23:44.015Z,4.10
2023-04-24T22:26:11.779Z,5.07
2023-04-24T22:28:39.421Z,3.95
2023-04-24T22:31:07.097Z,4.57
2023-04-24T22:33:34.979Z,4.65
2023-04-24T22:36:02.649Z,4.05
2023-04-24T22:38:30.236Z,4.78
2023-04-24T22:40:59.194Z,4.25
2023-04-24T22:43:27.812Z,5.40
2023-04-24T22:45:55.395Z,3.97
2023-04-24T22:48:23.232Z,4.50
2023-04-24T22:50:52.267Z,5.25
2023-04-24T22:53:20.065Z,4.93
2023-04-24T22:55:47.726Z,4.70
2023-04-24T22:58:16.706Z,4.55
2023-04-24T23:00:44.974Z,4.78
2023-04-24T23:03:12.695Z,5.15
2023-04-24T23:05:40.838Z,5.03
2023-04-24T23:08:08.361Z,4.57
2023-04-24T23:10:35.994Z,4.60
2023-04-24T23:13:03.588Z,4.65
2023-04-24T23:15:32.514Z,4.82
2023-04-24T23:18:00.029Z,4.05
2023-04-24T23:20:27.675Z,4.88
2023-04-24T23:22:55.444Z,4.70
2023-04-24T23:25:23.011Z,4.65
2023-04-24T23:27:50.564Z,3.80
2023-04-24T23:30:18.118Z,4.30
2023-04-24T23:32:47.054Z,4.30
2023-04-24T23:35:15.059Z,4.10
2023-04-24T23:37:42.790Z,4.75
2023-04-24T23:40:11.033Z,4.35
2023-04-24T23:42:38.783Z,4.03
2023-04-24T23:45:07.715Z,3.92
2023-04-24T23:47:35.317Z,4.65
2023-04-24T23:50:04.722Z,4.03
2023-04-24T23:52:32.341Z,4.35
2023-04-24T23:55:00.000Z,4.47
2023-04-24T23:57:27.584Z,4.85
2023-04-24T23:59:55.138Z,4.82
